Time;durP1;ratioP1;P1;durP2;ratioP2;P2;SDS_P1;SDS_P2;PMS_P1;PMS_P2;Temp;Humidity;BMP_temperature;BMP_pressure;BME280_temperature;BME280_humidity;BME280_pressure;Samples;Min_cycle;Max_cycle;Signal;HPM_P1;HPM_P2
2024/04/18 00:01:56;;;;;;;20.08;15.02;;;;;;;;;;5383917;26;19996;-56
2024/04/18 00:04:21;;;;;;;20.55;15.25;;;;;;;;;;5352736;26;20012;-58
2024/04/18 00:06:46;;;;;;;18.05;15.63;;;;;;;;;;5383148;26;20004;-55
2024/04/18 00:09:11;;;;;;;17.90;14.75;;;;;;;;;;5381452;26;20067;-57
2024/04/18 00:11:37;;;;;;;19.23;15.90;;;;;;;;;;5383631;26;20012;-54
2024/04/18 00:14:02;;;;;;;17.77;14.55;;;;;;;;;;5384252;26;20003;-57
2024/04/18 00:16:27;;;;;;;21.60;15.35;;;;;;;;;;5383144;26;20000;-54
2024/04/18 00:18:52;;;;;;;20.35;16.50;;;;;;;;;;5383663;26;20475;-57
2024/04/18 00:21:17;;;;;;;23.10;16.95;;;;;;;;;;5352493;26;20007;-58
2024/04/18 00:23:43;;;;;;;20.00;16.27;;;;;;;;;;5382961;26;20000;-58
2024/04/18 00:26:08;;;;;;;20.85;16.50;;;;;;;;;;5382865;26;20010;-57
2024/04/18 00:28:33;;;;;;;21.65;17.42;;;;;;;;;;5384094;26;20007;-57
2024/04/18 00:30:58;;;;;;;20.63;15.63;;;;;;;;;;5383676;26;19996;-57
2024/04/18 00:33:24;;;;;;;20.73;16.27;;;;;;;;;;5382812;26;20020;-57
2024/04/18 00:35:49;;;;;;;20.48;16.95;;;;;;;;;;5383404;26;20010;-57
2024/04/18 00:38:14;;;;;;;21.27;16.70;;;;;;;;;;5352331;26;20004;-57
2024/04/18 00:40:40;;;;;;;20.35;16.85;;;;;;;;;;5382608;26;20008;-58
2024/04/18 00:43:05;;;;;;;22.52;17.60;;;;;;;;;;5383256;26;19996;-57
2024/04/18 00:45:30;;;;;;;24.50;19.33;;;;;;;;;;5383805;26;20007;-57
2024/04/18 00:47:55;;;;;;;25.30;18.10;;;;;;;;;;5382816;26;19992;-56
2024/04/18 00:50:21;;;;;;;24.80;19.35;;;;;;;;;;5385851;26;19992;-56
2024/04/18 00:52:47;;;;;;;23.15;19.42;;;;;;;;;;5386752;26;20001;-57
2024/04/18 00:55:12;;;;;;;21.40;17.88;;;;;;;;;;5386571;26;20000;-57
2024/04/18 00:57:38;;;;;;;22.50;17.90;;;;;;;;;;5387005;26;20304;-58
2024/04/18 01:00:05;;;;;;;20.02;16.08;;;;;;;;;;5386448;26;20008;-55
2024/04/18 01:02:30;;;;;;;20.83;16.35;;;;;;;;;;5386601;26;20015;-57
2024/04/18 01:04:56;;;;;;;22.92;16.05;;;;;;;;;;5386645;26;20008;-56
2024/04/18 01:07:21;;;;;;;19.77;15.15;;;;;;;;;;5387019;26;20402;-56
2024/04/18 01:09:46;;;;;;;17.77;14.20;;;;;;;;;;5386559;26;20000;-57
2024/04/18 01:12:11;;;;;;;18.20;13.80;;;;;;;;;;5354181;26;20416;-56
2024/04/18 01:14:36;;;;;;;18.02;13.80;;;;;;;;;;5384591;26;20008;-54
2024/04/18 01:17:03;;;;;;;19.25;13.82;;;;;;;;;;5386531;26;20378;-55
2024/04/18 01:19:28;;;;;;;16.35;13.40;;;;;;;;;;5385195;26;20040;-56
2024/04/18 01:21:53;;;;;;;19.90;13.75;;;;;;;;;;5384553;26;20393;-56
2024/04/18 01:24:19;;;;;;;19.92;14.88;;;;;;;;;;5384827;26;19996;-55
2024/04/18 01:26:44;;;;;;;20.20;14.77;;;;;;;;;;5384098;26;19996;-57
2024/04/18 01:29:09;;;;;;;18.80;14.60;;;;;;;;;;5384506;26;19996;-56
2024/04/18 01:31:34;;;;;;;20.75;15.13;;;;;;;;;;5350927;26;20075;-57
2024/04/18 01:33:59;;;;;;;17.75;14.43;;;;;;;;;;5384272;26;19993;-56
2024/04/18 01:36:25;;;;;;;18.73;14.95;;;;;;;;;;5385046;26;20390;-56
2024/04/18 01:38:50;;;;;;;19.85;15.15;;;;;;;;;;5386384;26;20088;-56
2024/04/18 01:41:18;;;;;;;20.27;14.90;;;;;;;;;;5355469;26;19996;-58
2024/04/18 01:43:43;;;;;;;21.25;15.13;;;;;;;;;;5385899;26;20000;-57
2024/04/18 01:46:08;;;;;;;22.35;16.40;;;;;;;;;;5384346;26;20340;-55
2024/04/18 01:48:33;;;;;;;22.40;17.10;;;;;;;;;;5385155;26;20012;-55
2024/04/18 01:50:58;;;;;;;22.00;16.73;;;;;;;;;;5383176;26;20004;-57
2024/04/18 01:53:24;;;;;;;21.67;15.70;;;;;;;;;;5384559;26;20136;-56
2024/04/18 01:55:49;;;;;;;22.27;17.45;;;;;;;;;;5381425;26;20022;-57
2024/04/18 01:58:14;;;;;;;19.58;15.90;;;;;;;;;;5384481;26;20000;-58
2024/04/18 02:00:43;;;;;;;20.95;16.30;;;;;;;;;;5382098;26;20377;-55
2024/04/18 02:03:08;;;;;;;19.33;15.68;;;;;;;;;;5386062;26;20000;-55
2024/04/18 02:05:33;;;;;;;20.38;16.40;;;;;;;;;;5382120;26;20007;-57
2024/04/18 02:07:58;;;;;;;20.10;15.60;;;;;;;;;;5384257;26;20032;-56
2024/04/18 02:10:23;;;;;;;19.13;14.80;;;;;;;;;;5382719;26;20008;-56
2024/04/18 02:12:49;;;;;;;20.02;14.98;;;;;;;;;;5383795;26;20004;-58
2024/04/18 02:15:14;;;;;;;19.55;14.38;;;;;;;;;;5353263;26;19997;-56
2024/04/18 02:17:39;;;;;;;18.85;14.80;;;;;;;;;;5384972;26;20000;-56
2024/04/18 02:20:04;;;;;;;16.23;11.93;;;;;;;;;;5383426;26;20007;-57
2024/04/18 02:22:30;;;;;;;16.25;12.35;;;;;;;;;;5383222;26;20317;-55
2024/04/18 02:25:08;;;;;;;14.68;11.57;;;;;;;;;;5382088;26;20008;-56
2024/04/18 02:27:34;;;;;;;16.25;11.30;;;;;;;;;;5384431;26;20000;-56
2024/04/18 02:29:59;;;;;;;12.93;10.45;;;;;;;;;;5382957;26;20015;-57
2024/04/18 02:32:24;;;;;;;13.75;10.48;;;;;;;;;;5384160;26;20000;-58
2024/04/18 02:34:49;;;;;;;13.65;10.35;;;;;;;;;;5383625;26;20292;-54
2024/04/18 02:37:14;;;;;;;14.32;9.77;;;;;;;;;;5385581;26;20007;-57
2024/04/18 02:39:40;;;;;;;15.00;9.23;;;;;;;;;;5382790;26;20316;-55
2024/04/18 02:42:05;;;;;;;11.85;8.98;;;;;;;;;;5377992;26;20420;-57
2024/04/18 02:44:30;;;;;;;12.18;9.27;;;;;;;;;;5383146;26;20000;-56
2024/04/18 02:46:55;;;;;;;12.23;8.93;;;;;;;;;;5384329;26;19996;-54
2024/04/18 02:49:21;;;;;;;14.05;8.45;;;;;;;;;;5381804;26;20011;-56
2024/04/18 02:51:46;;;;;;;10.30;8.32;;;;;;;;;;5384954;26;20072;-57
2024/04/18 02:54:11;;;;;;;12.68;8.65;;;;;;;;;;5383870;26;20005;-57
2024/04/18 02:56:36;;;;;;;13.98;8.95;;;;;;;;;;5384118;26;20008;-57
2024/04/18 02:59:01;;;;;;;11.55;9.25;;;;;;;;;;5382941;26;20447;-54
2024/04/18 03:01:28;;;;;;;13.27;9.45;;;;;;;;;;5401584;21;20019;-88
2024/04/18 03:03:55;;;;;;;12.73;9.57;;;;;;;;;;5413295;26;20375;-88
2024/04/18 03:06:20;;;;;;;15.30;9.38;;;;;;;;;;5422421;26;20008;-88
2024/04/18 03:08:45;;;;;;;12.88;9.05;;;;;;;;;;5416569;26;19998;-88
2024/04/18 03:11:10;;;;;;;14.25;9.45;;;;;;;;;;5430208;26;19999;-88
2024/04/18 03:13:38;;;;;;;11.48;9.02;;;;;;;;;;5420668;26;20006;-88
2024/04/18 03:16:03;;;;;;;14.18;9.43;;;;;;;;;;5388511;26;20006;-88
2024/04/18 03:18:29;;;;;;;11.10;7.95;;;;;;;;;;5430258;26;20420;-88
2024/04/18 03:20:54;;;;;;;18.00;9.57;;;;;;;;;;5439698;26;19999;-88
2024/04/18 03:23:21;;;;;;;12.68;8.60;;;;;;;;;;5455610;26;20007;-88
2024/04/18 03:25:47;;;;;;;11.27;8.43;;;;;;;;;;5399645;26;20003;-88
2024/04/18 03:28:13;;;;;;;11.82;8.88;;;;;;;;;;5447820;26;20068;-88
2024/04/18 03:30:38;;;;;;;11.45;8.02;;;;;;;;;;5393317;26;20012;-88
2024/04/18 03:33:04;;;;;;;11.32;8.02;;;;;;;;;;5417539;26;20326;-88
2024/04/18 03:35:30;;;;;;;13.40;8.15;;;;;;;;;;5436073;26;19991;-87
2024/04/18 03:37:55;;;;;;;11.30;8.05;;;;;;;;;;5457210;26;20003;-87
2024/04/18 03:40:20;;;;;;;10.82;8.38;;;;;;;;;;5430132;26;20312;-88
2024/04/18 03:42:46;;;;;;;13.82;8.38;;;;;;;;;;5448454;26;20026;-88
2024/04/18 03:45:11;;;;;;;10.18;7.45;;;;;;;;;;5409230;26;20010;-89
2024/04/18 03:47:36;;;;;;;10.55;8.27;;;;;;;;;;5457058;26;20056;-88
2024/04/18 03:50:02;;;;;;;11.32;7.72;;;;;;;;;;5423678;26;19998;-88
2024/04/18 03:52:27;;;;;;;11.43;7.28;;;;;;;;;;5363620;26;20015;-89
2024/04/18 03:54:52;;;;;;;12.13;8.52;;;;;;;;;;5389587;26;20415;-88
2024/04/18 03:57:19;;;;;;;9.80;7.30;;;;;;;;;;5420692;26;20292;-88
2024/04/18 03:59:44;;;;;;;12.27;7.90;;;;;;;;;;5367809;26;19996;-88
2024/04/18 04:02:09;;;;;;;12.27;8.13;;;;;;;;;;5392357;21;20019;-53
2024/04/18 04:04:36;;;;;;;14.20;7.97;;;;;;;;;;5386355;26;20004;-57
2024/04/18 04:07:02;;;;;;;10.82;8.20;;;;;;;;;;5420778;26;19991;-53
2024/04/18 04:09:27;;;;;;;11.13;8.25;;;;;;;;;;5420764;26;20396;-54
2024/04/18 04:11:53;;;;;;;13.70;8.68;;;;;;;;;;5400849;26;20015;-57
2024/04/18 04:14:18;;;;;;;13.23;8.23;;;;;;;;;;5401832;26;20014;-55
2024/04/18 04:16:44;;;;;;;12.20;8.52;;;;;;;;;;5389517;26;20004;-57
2024/04/18 04:19:09;;;;;;;11.88;8.77;;;;;;;;;;5391243;26;19997;-57
2024/04/18 04:21:34;;;;;;;12.73;8.63;;;;;;;;;;5383905;26;19996;-56
2024/04/18 04:23:59;;;;;;;11.13;8.35;;;;;;;;;;5383942;26;20011;-56
2024/04/18 04:26:24;;;;;;;13.98;8.93;;;;;;;;;;5383123;26;20004;-56
2024/04/18 04:28:50;;;;;;;11.85;8.60;;;;;;;;;;5383256;26;20417;-55
2024/04/18 04:31:15;;;;;;;12.52;8.32;;;;;;;;;;5384900;26;20015;-55
2024/04/18 04:33:40;;;;;;;19.00;10.27;;;;;;;;;;5382270;26;20004;-56
2024/04/18 04:36:05;;;;;;;14.20;9.07;;;;;;;;;;5386995;26;20008;-56
2024/04/18 04:38:31;;;;;;;12.52;8.38;;;;;;;;;;5384841;26;19992;-55
2024/04/18 04:40:56;;;;;;;12.00;8.95;;;;;;;;;;5383726;26;20006;-57
2024/04/18 04:43:21;;;;;;;13.90;8.88;;;;;;;;;;5384327;26;19996;-57
2024/04/18 04:45:57;;;;;;;13.60;8.07;;;;;;;;;;5383100;26;20070;-57
2024/04/18 04:48:23;;;;;;;12.43;8.95;;;;;;;;;;5385695;26;20426;-57
2024/04/18 04:50:58;;;;;;;11.45;7.97;;;;;;;;;;5382611;26;20015;-57
2024/04/18 04:53:23;;;;;;;12.48;8.40;;;;;;;;;;5388846;26;19996;-55
2024/04/18 04:55:48;;;;;;;12.35;9.00;;;;;;;;;;5390835;26;20019;-55
2024/04/18 04:58:13;;;;;;;10.73;8.70;;;;;;;;;;5384548;26;20000;-56
2024/04/18 05:00:39;;;;;;;11.65;8.60;;;;;;;;;;5393492;26;20014;-57
2024/04/18 05:03:04;;;;;;;10.00;7.93;;;;;;;;;;5384884;26;20014;-58
2024/04/18 05:05:29;;;;;;;16.20;8.88;;;;;;;;;;5384550;26;20008;-58
2024/04/18 05:07:54;;;;;;;10.88;8.57;;;;;;;;;;5383900;26;20011;-54
2024/04/18 05:10:19;;;;;;;15.68;9.07;;;;;;;;;;5383550;26;20007;-58
2024/04/18 05:12:45;;;;;;;14.25;8.98;;;;;;;;;;5383939;26;20004;-58
2024/04/18 05:15:10;;;;;;;14.07;8.27;;;;;;;;;;5385227;26;20000;-59
2024/04/18 05:17:35;;;;;;;12.70;9.15;;;;;;;;;;5405863;26;19996;-59
2024/04/18 05:20:00;;;;;;;11.52;8.73;;;;;;;;;;5404856;26;20008;-58
2024/04/18 05:22:25;;;;;;;17.60;11.20;;;;;;;;;;5382285;26;20011;-57
2024/04/18 05:24:51;;;;;;;15.52;8.82;;;;;;;;;;5383266;26;20305;-59
2024/04/18 05:27:16;;;;;;;12.00;7.45;;;;;;;;;;5383515;26;19996;-58
2024/04/18 05:32:45;;;;;;;14.65;7.85;;;;;;;;;;5276110;27;20010;-58
2024/04/18 05:35:10;;;;;;;11.55;7.15;;;;;;;;;;5290357;27;20077;-58
2024/04/18 05:37:35;;;;;;;16.23;8.98;;;;;;;;;;5329095;26;19996;-58
2024/04/18 05:40:00;;;;;;;12.82;7.47;;;;;;;;;;5386489;26;20011;-57
2024/04/18 05:42:26;;;;;;;12.65;7.68;;;;;;;;;;5388719;26;20004;-59
2024/04/18 05:44:51;;;;;;;12.98;7.88;;;;;;;;;;5391870;26;19996;-59
2024/04/18 05:47:16;;;;;;;12.23;6.80;;;;;;;;;;5387137;26;19992;-58
2024/04/18 05:49:42;;;;;;;12.30;7.55;;;;;;;;;;5386888;26;19992;-58
2024/04/18 05:52:07;;;;;;;15.60;7.20;;;;;;;;;;5390544;26;20010;-59
2024/04/18 05:54:32;;;;;;;12.02;7.15;;;;;;;;;;5386195;26;20088;-59
2024/04/18 05:56:57;;;;;;;9.68;6.00;;;;;;;;;;5387806;26;20408;-55
2024/04/18 05:59:22;;;;;;;11.63;6.38;;;;;;;;;;5394422;26;20258;-57
2024/04/18 06:01:49;;;;;;;10.23;5.68;;;;;;;;;;5391966;26;20004;-58
2024/04/18 06:04:15;;;;;;;12.23;6.03;;;;;;;;;;5386280;26;20012;-58
2024/04/18 06:06:42;;;;;;;10.23;5.65;;;;;;;;;;5357535;26;20352;-59
2024/04/18 06:09:08;;;;;;;13.65;6.53;;;;;;;;;;5415925;26;20096;-59
2024/04/18 06:11:43;;;;;;;10.07;5.90;;;;;;;;;;5386119;26;20066;-59
2024/04/18 06:14:09;;;;;;;9.70;5.78;;;;;;;;;;5409879;26;20001;-58
2024/04/18 06:16:55;;;;;;;10.73;5.50;;;;;;;;;;5386494;26;20463;-56
2024/04/18 06:19:21;;;;;;;12.63;6.15;;;;;;;;;;5386240;26;19992;-58
2024/04/18 06:21:48;;;;;;;9.05;5.35;;;;;;;;;;5385935;26;20019;-57
2024/04/18 06:24:14;;;;;;;11.65;5.97;;;;;;;;;;5411252;26;20082;-59
2024/04/18 06:26:41;;;;;;;12.88;5.75;;;;;;;;;;5397163;26;20004;-55
2024/04/18 06:29:07;;;;;;;12.13;5.03;;;;;;;;;;5419836;26;19995;-58
2024/04/18 06:31:34;;;;;;;16.60;5.20;;;;;;;;;;5371247;26;20000;-57
2024/04/18 06:34:00;;;;;;;11.75;5.72;;;;;;;;;;5386473;26;20088;-58
2024/04/18 06:36:25;;;;;;;13.00;5.28;;;;;;;;;;5386445;26;20008;-57
2024/04/18 06:38:51;;;;;;;11.00;5.30;;;;;;;;;;5387270;26;20007;-58
2024/04/18 06:41:17;;;;;;;9.65;5.10;;;;;;;;;;5386461;26;20420;-57
2024/04/18 06:43:43;;;;;;;10.32;5.25;;;;;;;;;;5377713;26;20015;-58
2024/04/18 06:46:09;;;;;;;12.90;5.05;;;;;;;;;;5385352;26;20302;-55
2024/04/18 06:48:36;;;;;;;10.88;4.63;;;;;;;;;;5355165;26;20004;-58
2024/04/18 06:51:02;;;;;;;12.52;4.88;;;;;;;;;;5385851;26;20040;-58
2024/04/18 06:53:29;;;;;;;9.18;4.50;;;;;;;;;;5392917;26;20000;-56
2024/04/18 06:55:55;;;;;;;10.32;5.05;;;;;;;;;;5390749;26;20124;-59
2024/04/18 06:58:21;;;;;;;13.38;4.70;;;;;;;;;;5385969;26;20000;-58
2024/04/18 07:00:48;;;;;;;12.15;4.40;;;;;;;;;;5385687;26;20004;-58
2024/04/18 07:03:15;;;;;;;16.83;4.60;;;;;;;;;;5383446;26;19996;-55
2024/04/18 07:05:42;;;;;;;11.90;4.40;;;;;;;;;;5385828;26;20000;-58
2024/04/18 07:08:07;;;;;;;10.77;4.63;;;;;;;;;;5385901;26;20393;-57
2024/04/18 07:10:34;;;;;;;12.20;3.88;;;;;;;;;;5386126;26;19996;-55
2024/04/18 07:13:00;;;;;;;10.80;3.83;;;;;;;;;;5384003;26;20439;-59
2024/04/18 07:15:26;;;;;;;16.63;4.40;;;;;;;;;;5389883;26;20044;-58
2024/04/18 07:17:54;;;;;;;11.05;4.22;;;;;;;;;;5384151;26;20011;-59
2024/04/18 07:20:24;;;;;;;10.13;3.85;;;;;;;;;;5420490;26;19999;-55
2024/04/18 07:22:50;;;;;;;10.57;3.90;;;;;;;;;;5410417;26;19992;-55
2024/04/18 07:25:16;;;;;;;10.25;4.20;;;;;;;;;;5377851;26;20015;-58
2024/04/18 07:27:44;;;;;;;10.75;3.95;;;;;;;;;;5382334;26;20044;-56
2024/04/18 07:30:10;;;;;;;13.98;4.40;;;;;;;;;;5363624;26;20408;-58
2024/04/18 07:32:36;;;;;;;10.55;4.05;;;;;;;;;;5384219;26;20004;-59
2024/04/18 07:35:01;;;;;;;10.25;3.75;;;;;;;;;;5385421;26;20315;-58
2024/04/18 07:37:28;;;;;;;12.93;3.88;;;;;;;;;;5383605;26;20000;-58
2024/04/18 07:39:56;;;;;;;11.60;3.72;;;;;;;;;;5383454;26;20315;-56
2024/04/18 07:42:23;;;;;;;10.57;4.22;;;;;;;;;;5386362;26;19997;-58
2024/04/18 07:44:50;;;;;;;12.25;3.90;;;;;;;;;;5381777;26;20001;-57
2024/04/18 07:47:16;;;;;;;8.63;3.60;;;;;;;;;;5384950;26;20304;-57
2024/04/18 07:49:42;;;;;;;12.25;3.75;;;;;;;;;;5354335;26;20063;-57
2024/04/18 07:52:09;;;;;;;16.38;3.97;;;;;;;;;;5392470;26;20004;-53
2024/04/18 07:54:36;;;;;;;14.77;4.22;;;;;;;;;;5352996;26;20031;-58
2024/04/18 07:57:02;;;;;;;11.85;3.78;;;;;;;;;;5393503;26;20380;-57
2024/04/18 07:59:28;;;;;;;8.45;3.47;;;;;;;;;;5385737;26;20003;-57
2024/04/18 08:01:54;;;;;;;10.93;3.83;;;;;;;;;;5388427;26;20000;-53
2024/04/18 08:04:21;;;;;;;10.02;3.00;;;;;;;;;;5385176;26;20003;-57
2024/04/18 08:06:47;;;;;;;13.30;3.78;;;;;;;;;;5397061;26;20008;-56
2024/04/18 08:09:13;;;;;;;12.10;3.60;;;;;;;;;;5420536;26;20035;-58
2024/04/18 08:11:39;;;;;;;9.80;3.00;;;;;;;;;;5419982;26;20073;-55
2024/04/18 08:14:05;;;;;;;9.13;3.85;;;;;;;;;;5388043;26;20365;-57
2024/04/18 08:16:32;;;;;;;8.90;3.35;;;;;;;;;;5391319;26;20402;-53
2024/04/18 08:18:57;;;;;;;7.82;3.20;;;;;;;;;;5389612;26;19999;-54
2024/04/18 08:21:26;;;;;;;9.52;3.47;;;;;;;;;;5385084;26;20353;-58
2024/04/18 08:23:56;;;;;;;8.90;3.00;;;;;;;;;;5395929;26;20004;-53
2024/04/18 08:26:24;;;;;;;14.18;3.20;;;;;;;;;;5388106;26;19996;-56
2024/04/18 08:28:50;;;;;;;10.50;3.42;;;;;;;;;;5349324;26;20154;-53
2024/04/18 08:31:15;;;;;;;13.45;3.30;;;;;;;;;;5366329;26;20019;-56
2024/04/18 08:33:42;;;;;;;9.45;2.40;;;;;;;;;;5383760;26;19996;-58
2024/04/18 08:36:08;;;;;;;12.90;2.67;;;;;;;;;;5385749;26;20024;-57
2024/04/18 08:38:35;;;;;;;10.32;2.60;;;;;;;;;;5399353;26;20031;-57
2024/04/18 08:41:10;;;;;;;9.98;2.55;;;;;;;;;;5407860;26;20278;-58
2024/04/18 08:43:39;;;;;;;10.98;2.63;;;;;;;;;;5384422;26;20004;-54
2024/04/18 08:46:08;;;;;;;9.13;2.67;;;;;;;;;;5384749;26;20424;-54
2024/04/18 08:48:35;;;;;;;8.68;2.70;;;;;;;;;;5384638;26;20053;-55
2024/04/18 08:51:02;;;;;;;7.95;2.42;;;;;;;;;;5384129;26;20023;-55
2024/04/18 08:53:27;;;;;;;9.90;2.30;;;;;;;;;;5418032;26;19999;-53
2024/04/18 08:55:57;;;;;;;8.52;2.00;;;;;;;;;;5419751;26;20300;-56
2024/04/18 08:58:23;;;;;;;10.80;2.58;;;;;;;;;;5419600;26;20011;-58
2024/04/18 09:00:50;;;;;;;8.35;1.92;;;;;;;;;;5387367;26;20015;-54
2024/04/18 09:03:15;;;;;;;10.73;1.77;;;;;;;;;;5375644;26;20000;-57
2024/04/18 09:05:44;;;;;;;6.97;1.75;;;;;;;;;;5379672;26;20015;-56
2024/04/18 09:08:12;;;;;;;7.80;2.15;;;;;;;;;;5375795;26;20011;-57
2024/04/18 09:10:37;;;;;;;9.82;2.20;;;;;;;;;;5366523;26;20001;-57
2024/04/18 09:13:02;;;;;;;8.50;2.10;;;;;;;;;;5376254;26;20074;-56
2024/04/18 09:15:28;;;;;;;7.22;1.70;;;;;;;;;;5372596;26;20015;-57
2024/04/18 09:18:00;;;;;;;11.45;2.25;;;;;;;;;;5368127;26;20008;-55
2024/04/18 09:20:25;;;;;;;8.90;2.20;;;;;;;;;;5367947;26;20007;-57
2024/04/18 09:22:50;;;;;;;13.90;2.17;;;;;;;;;;5370314;26;20005;-55
2024/04/18 09:25:15;;;;;;;9.27;2.53;;;;;;;;;;5363980;26;20004;-57
2024/04/18 09:27:41;;;;;;;10.88;2.30;;;;;;;;;;5361355;26;20429;-54
2024/04/18 09:30:07;;;;;;;6.53;1.73;;;;;;;;;;5365492;26;20011;-57
2024/04/18 09:32:32;;;;;;;9.05;2.20;;;;;;;;;;5369689;26;20007;-55
2024/04/18 09:34:57;;;;;;;8.18;2.58;;;;;;;;;;5376330;26;20149;-55
2024/04/18 09:37:25;;;;;;;13.82;3.10;;;;;;;;;;5379614;26;20019;-56
2024/04/18 09:39:52;;;;;;;14.40;3.25;;;;;;;;;;5366714;26;20308;-56
2024/04/18 09:42:29;;;;;;;16.77;3.35;;;;;;;;;;5378314;26;20000;-57
2024/04/18 09:44:59;;;;;;;12.88;3.20;;;;;;;;;;5344500;26;19997;-56
2024/04/18 09:47:25;;;;;;;10.30;2.63;;;;;;;;;;5367899;26;20019;-55
2024/04/18 09:49:50;;;;;;;10.32;2.83;;;;;;;;;;5365496;26;20008;-57
2024/04/18 09:52:16;;;;;;;11.52;2.50;;;;;;;;;;5365799;26;20046;-56
2024/04/18 09:54:42;;;;;;;13.35;3.17;;;;;;;;;;5368892;26;20098;-58
2024/04/18 09:57:07;;;;;;;10.52;2.75;;;;;;;;;;5366006;26;20008;-56
2024/04/18 09:59:33;;;;;;;11.77;3.17;;;;;;;;;;5367630;26;20004;-57
2024/04/18 10:02:02;;;;;;;9.45;2.90;;;;;;;;;;5378883;26;20004;-57
2024/04/18 10:04:28;;;;;;;9.23;2.50;;;;;;;;;;5382017;26;20003;-53
2024/04/18 10:06:55;;;;;;;6.70;2.25;;;;;;;;;;5365162;26;20000;-59
2024/04/18 10:09:22;;;;;;;7.75;2.10;;;;;;;;;;5362081;26;21146;-53
2024/04/18 10:11:48;;;;;;;9.27;2.72;;;;;;;;;;5367041;26;19996;-51
2024/04/18 10:14:14;;;;;;;8.75;1.73;;;;;;;;;;5376201;26;20314;-51
2024/04/18 10:16:49;;;;;;;4.93;1.52;;;;;;;;;;5361065;26;20008;-54
2024/04/18 10:19:21;;;;;;;9.73;2.08;;;;;;;;;;5360978;26;20004;-58
2024/04/18 10:21:55;;;;;;;8.75;2.00;;;;;;;;;;5363823;26;19996;-57
2024/04/18 10:24:20;;;;;;;7.03;1.90;;;;;;;;;;5365857;26;20278;-58
2024/04/18 10:26:45;;;;;;;5.35;1.92;;;;;;;;;;5363321;26;20016;-56
2024/04/18 10:29:23;;;;;;;6.97;1.90;;;;;;;;;;5337505;26;19993;-58
2024/04/18 10:31:48;;;;;;;5.88;1.92;;;;;;;;;;5364336;26;20014;-57
2024/04/18 10:34:14;;;;;;;6.00;1.77;;;;;;;;;;5364408;26;20004;-57
2024/04/18 10:36:39;;;;;;;9.00;2.00;;;;;;;;;;5374449;26;20007;-57
2024/04/18 10:39:04;;;;;;;5.75;1.58;;;;;;;;;;5360324;26;20022;-58
2024/04/18 10:41:29;;;;;;;6.82;1.80;;;;;;;;;;5370466;26;19997;-57
2024/04/18 10:43:54;;;;;;;4.47;1.48;;;;;;;;;;5365437;26;20044;-58
2024/04/18 10:46:20;;;;;;;5.80;1.67;;;;;;;;;;5362308;26;20019;-58
2024/04/18 10:48:50;;;;;;;5.43;1.63;;;;;;;;;;5363180;26;20671;-57
2024/04/18 10:51:16;;;;;;;5.30;1.75;;;;;;;;;;5368029;26;20011;-56
2024/04/18 10:53:41;;;;;;;7.25;1.20;;;;;;;;;;5360091;26;20393;-56
2024/04/18 10:56:06;;;;;;;6.18;1.40;;;;;;;;;;5372797;26;20323;-55
2024/04/18 10:58:31;;;;;;;7.00;1.52;;;;;;;;;;5364967;26;20012;-55
2024/04/18 11:01:00;;;;;;;3.90;1.30;;;;;;;;;;5370228;26;19992;-54
2024/04/18 11:03:27;;;;;;;6.13;1.88;;;;;;;;;;5365972;26;20011;-54
2024/04/18 11:05:52;;;;;;;5.22;1.90;;;;;;;;;;5370861;26;20007;-55
2024/04/18 11:08:20;;;;;;;8.38;1.80;;;;;;;;;;5367743;26;20004;-56
2024/04/18 11:10:45;;;;;;;6.20;1.88;;;;;;;;;;5366538;26;20009;-56
2024/04/18 11:13:11;;;;;;;3.33;1.27;;;;;;;;;;5361874;26;20004;-56
2024/04/18 11:15:36;;;;;;;7.25;1.83;;;;;;;;;;5365748;26;20012;-56
2024/04/18 11:18:05;;;;;;;6.82;1.80;;;;;;;;;;5372695;26;20401;-56
2024/04/18 11:20:30;;;;;;;5.32;1.35;;;;;;;;;;5364469;26;20008;-56
2024/04/18 11:22:56;;;;;;;6.38;1.95;;;;;;;;;;5359136;26;20008;-55
2024/04/18 11:25:21;;;;;;;5.32;1.50;;;;;;;;;;5367606;26;20040;-55
2024/04/18 11:27:46;;;;;;;5.32;1.50;;;;;;;;;;5364828;26;20086;-55
2024/04/18 11:30:18;;;;;;;5.47;1.58;;;;;;;;;;5366693;26;20004;-56
2024/04/18 11:32:51;;;;;;;7.85;2.47;;;;;;;;;;5359626;26;20031;-56
2024/04/18 11:35:16;;;;;;;10.70;1.98;;;;;;;;;;5362386;26;20044;-56
2024/04/18 11:37:45;;;;;;;9.90;2.10;;;;;;;;;;5377150;26;20075;-57
2024/04/18 11:40:10;;;;;;;13.32;1.67;;;;;;;;;;5372012;26;20409;-56
2024/04/18 11:42:35;;;;;;;6.80;1.25;;;;;;;;;;5378794;26;20000;-56
2024/04/18 11:45:00;;;;;;;6.65;1.63;;;;;;;;;;5370892;26;20289;-53
2024/04/18 11:47:26;;;;;;;6.07;1.67;;;;;;;;;;5379480;26;20424;-56
2024/04/18 11:49:51;;;;;;;6.40;1.60;;;;;;;;;;5379778;26;20008;-55
2024/04/18 11:52:16;;;;;;;5.80;1.65;;;;;;;;;;5379262;26;19997;-56
2024/04/18 11:54:43;;;;;;;4.47;1.38;;;;;;;;;;5378757;26;20019;-55
2024/04/18 11:57:08;;;;;;;4.72;1.60;;;;;;;;;;5380480;26;20008;-57
2024/04/18 11:59:34;;;;;;;5.03;1.60;;;;;;;;;;5383436;26;20479;-55
2024/04/18 12:02:00;;;;;;;9.20;1.90;;;;;;;;;;5372786;26;20000;-56
2024/04/18 12:04:25;;;;;;;9.68;1.92;;;;;;;;;;5382253;26;20004;-56
2024/04/18 12:06:50;;;;;;;5.32;1.50;;;;;;;;;;5378656;26;20008;-56
2024/04/18 12:09:15;;;;;;;5.88;1.48;;;;;;;;;;5381760;26;19997;-56
2024/04/18 12:11:41;;;;;;;6.55;1.63;;;;;;;;;;5374899;26;20000;-55
2024/04/18 12:14:06;;;;;;;7.20;1.58;;;;;;;;;;5378580;26;20079;-57
2024/04/18 12:16:31;;;;;;;5.88;1.67;;;;;;;;;;5379510;26;20046;-56
2024/04/18 12:18:56;;;;;;;5.90;1.50;;;;;;;;;;5380339;26;20313;-56
2024/04/18 12:21:22;;;;;;;4.35;1.45;;;;;;;;;;5377225;26;19997;-57
2024/04/18 12:23:47;;;;;;;4.05;1.40;;;;;;;;;;5332899;26;20001;-57
2024/04/18 12:26:12;;;;;;;3.38;1.15;;;;;;;;;;5375126;26;19996;-55
2024/04/18 12:28:37;;;;;;;3.15;1.30;;;;;;;;;;5383426;26;19996;-57
2024/04/18 12:31:03;;;;;;;3.67;1.25;;;;;;;;;;5380925;26;20008;-57
2024/04/18 12:33:28;;;;;;;4.38;1.10;;;;;;;;;;5377567;26;20492;-58
2024/04/18 12:35:54;;;;;;;4.75;1.13;;;;;;;;;;5382641;26;20004;-57
2024/04/18 12:38:19;;;;;;;4.10;1.25;;;;;;;;;;5378884;26;19997;-56
2024/04/18 12:40:44;;;;;;;5.72;1.55;;;;;;;;;;5381327;26;19996;-57
2024/04/18 12:43:10;;;;;;;3.75;1.20;;;;;;;;;;5375249;26;20031;-57
2024/04/18 12:45:35;;;;;;;6.13;1.85;;;;;;;;;;5328414;26;20001;-58
2024/04/18 12:48:03;;;;;;;5.85;1.60;;;;;;;;;;5377466;26;19993;-57
2024/04/18 12:50:29;;;;;;;7.20;1.50;;;;;;;;;;5378266;26;20004;-57
2024/04/18 12:52:56;;;;;;;4.25;1.70;;;;;;;;;;5379659;26;20011;-58
2024/04/18 12:55:22;;;;;;;4.97;2.20;;;;;;;;;;5377314;26;20015;-58
2024/04/18 12:57:48;;;;;;;4.80;1.70;;;;;;;;;;5377805;26;20015;-58
2024/04/18 13:00:13;;;;;;;4.85;1.42;;;;;;;;;;5372213;26;19996;-58
2024/04/18 13:02:38;;;;;;;5.45;1.38;;;;;;;;;;5377112;26;20090;-56
2024/04/18 13:05:04;;;;;;;6.00;2.10;;;;;;;;;;5378210;26;20050;-57
2024/04/18 13:07:30;;;;;;;7.40;2.17;;;;;;;;;;5377091;26;20004;-57
2024/04/18 13:09:55;;;;;;;5.63;1.67;;;;;;;;;;5377904;26;20040;-57
2024/04/18 13:12:20;;;;;;;4.70;1.33;;;;;;;;;;5378485;26;19996;-57
2024/04/18 13:14:46;;;;;;;4.28;1.17;;;;;;;;;;5366909;26;20001;-58
2024/04/18 13:17:11;;;;;;;4.78;1.30;;;;;;;;;;5349336;26;19997;-58
2024/04/18 13:19:36;;;;;;;2.97;1.10;;;;;;;;;;5377356;26;20001;-57
2024/04/18 13:22:01;;;;;;;5.60;1.30;;;;;;;;;;5405115;26;20003;-58
2024/04/18 13:24:26;;;;;;;2.70;1.20;;;;;;;;;;5381137;26;19992;-57
2024/04/18 13:26:52;;;;;;;5.30;1.48;;;;;;;;;;5382771;26;20012;-59
2024/04/18 13:29:18;;;;;;;5.22;1.70;;;;;;;;;;5383545;26;19996;-58
2024/04/18 13:31:43;;;;;;;4.15;1.20;;;;;;;;;;5381905;26;20004;-58
2024/04/18 13:34:08;;;;;;;3.83;1.20;;;;;;;;;;5376173;26;20046;-59
2024/04/18 13:36:33;;;;;;;4.32;1.15;;;;;;;;;;5396068;26;20012;-58
2024/04/18 13:38:59;;;;;;;3.92;1.33;;;;;;;;;;5383270;26;20015;-59
2024/04/18 13:41:24;;;;;;;4.15;1.23;;;;;;;;;;5378074;26;19996;-57
2024/04/18 13:43:49;;;;;;;3.03;1.00;;;;;;;;;;5381782;26;20000;-59
2024/04/18 13:46:14;;;;;;;4.68;1.30;;;;;;;;;;5381586;26;20005;-58
2024/04/18 13:48:40;;;;;;;3.78;1.20;;;;;;;;;;5382184;26;20023;-57
2024/04/18 13:51:05;;;;;;;3.63;1.13;;;;;;;;;;5400892;26;20015;-58
2024/04/18 13:53:30;;;;;;;3.37;1.30;;;;;;;;;;5382022;26;20046;-57
2024/04/18 13:55:55;;;;;;;5.90;1.15;;;;;;;;;;5381223;26;20226;-56
2024/04/18 13:58:22;;;;;;;4.25;1.10;;;;;;;;;;5354785;26;20011;-58
2024/04/18 14:00:47;;;;;;;5.07;1.10;;;;;;;;;;5382612;26;20023;-58
2024/04/18 14:03:12;;;;;;;7.00;2.10;;;;;;;;;;5383098;26;19992;-58
2024/04/18 14:05:37;;;;;;;5.05;1.33;;;;;;;;;;5386267;26;19997;-57
2024/04/18 14:08:03;;;;;;;3.75;1.30;;;;;;;;;;5387258;26;19992;-60
2024/04/18 14:10:28;;;;;;;4.15;1.23;;;;;;;;;;5385241;26;20042;-57
2024/04/18 14:12:53;;;;;;;4.70;1.52;;;;;;;;;;5385424;26;20015;-56
2024/04/18 14:15:35;;;;;;;3.55;1.40;;;;;;;;;;5385554;26;19988;-58
2024/04/18 14:20:47;;;;;;;4.20;1.35;;;;;;;;;;5398769;26;20011;-57
2024/04/18 14:23:12;;;;;;;3.63;1.17;;;;;;;;;;5386290;26;20012;-57
2024/04/18 14:25:37;;;;;;;3.70;1.23;;;;;;;;;;5384320;26;20000;-57
2024/04/18 14:28:02;;;;;;;5.15;1.40;;;;;;;;;;5384607;26;20008;-56
2024/04/18 14:30:28;;;;;;;5.68;1.38;;;;;;;;;;5385024;26;19996;-56
2024/04/18 14:32:53;;;;;;;5.38;1.20;;;;;;;;;;5354555;26;20012;-57